Time;durP1;ratioP1;P1;durP2;ratioP2;P2;SDS_P1;SDS_P2;PMS_P1;PMS_P2;Temp;Humidity;BMP_temperature;BMP_pressure;BME280_temperature;BME280_humidity;BME280_pressure;Samples;Min_cycle;Max_cycle;Signal;HPM_P1;HPM_P2
2023/09/09 00:00:54;;;;;;;0.28;0.28;;;;;;;20.28;40.77;101535.59;5050046;28;20380;-83
2023/09/09 00:03:22;;;;;;;0.10;0.10;;;;;;;20.25;40.61;101539.50;5049670;28;20915;-83
2023/09/09 00:05:49;;;;;;;0.20;0.20;;;;;;;20.27;40.86;101541.16;5049630;28;20384;-84
2023/09/09 00:08:20;;;;;;;0.20;0.20;;;;;;;20.21;40.62;101543.69;5031670;28;20794;-84
2023/09/09 00:10:49;;;;;;;0.20;0.20;;;;;;;20.20;40.54;101539.34;5049959;28;20442;-85
2023/09/09 00:13:14;;;;;;;0.35;0.35;;;;;;;20.24;40.45;101548.63;5031588;28;20947;-84
2023/09/09 00:15:40;;;;;;;0.20;0.20;;;;;;;20.29;40.47;101539.91;5049836;28;20440;-84
2023/09/09 00:18:05;;;;;;;0.88;0.30;;;;;;;20.29;40.58;101542.59;5049848;28;20419;-85
2023/09/09 00:20:33;;;;;;;0.20;0.20;;;;;;;20.18;40.40;101548.66;5048889;28;20751;-85
2023/09/09 00:23:02;;;;;;;0.20;0.20;;;;;;;19.95;40.72;101531.16;5048759;28;20388;-84
2023/09/09 00:25:29;;;;;;;0.20;0.20;;;;;;;19.79;41.11;101539.66;5049948;28;20419;-88
2023/09/09 00:27:59;;;;;;;0.25;0.25;;;;;;;19.79;40.99;101539.66;5031593;28;20822;-84
2023/09/09 00:30:25;;;;;;;0.40;0.40;;;;;;;19.83;40.86;101539.06;5048036;28;20388;-84
2023/09/09 00:32:50;;;;;;;0.90;0.30;;;;;;;19.95;40.70;101541.94;5031734;28;20400;-89
2023/09/09 00:35:16;;;;;;;0.88;0.30;;;;;;;20.07;40.40;101544.78;5051803;28;20779;-87
2023/09/09 00:37:41;;;;;;;0.90;0.40;;;;;;;20.17;40.15;101541.66;5033796;28;21016;-87
2023/09/09 00:40:14;;;;;;;0.90;0.40;;;;;;;20.20;40.02;101544.72;5050611;28;20482;-86
2023/09/09 00:42:39;;;;;;;1.10;0.40;;;;;;;20.10;39.94;101543.53;5051159;28;20389;-87
2023/09/09 00:45:05;;;;;;;1.10;0.60;;;;;;;20.14;39.84;101558.22;5048778;28;20484;-86
2023/09/09 00:47:34;;;;;;;0.47;0.23;;;;;;;19.96;39.68;101548.13;5050141;28;20891;-87
2023/09/09 00:50:05;;;;;;;0.10;0.10;;;;;;;19.89;39.64;101550.84;5032423;28;20385;-87
2023/09/09 00:52:37;;;;;;;0.10;0.10;;;;;;;19.72;39.68;101542.38;5049749;28;20388;-87
2023/09/09 00:55:04;;;;;;;0.13;0.13;;;;;;;19.71;39.50;101540.69;5031852;28;20409;-87
2023/09/09 00:57:37;;;;;;;0.17;0.17;;;;;;;19.65;39.39;101549.63;5049543;28;20385;-87
2023/09/09 01:00:09;;;;;;;0.10;0.10;;;;;;;19.53;39.51;101540.53;5031460;28;20381;-87
2023/09/09 01:02:40;;;;;;;0.10;0.10;;;;;;;19.61;39.36;101545.72;5047718;28;20458;-87
2023/09/09 01:05:06;;;;;;;0.20;0.20;;;;;;;19.73;39.17;101544.03;5031652;28;20388;-86
2023/09/09 01:08:04;;;;;;;0.40;0.40;;;;;;;19.79;38.95;101545.06;5051527;28;20393;-84
2023/09/09 01:10:32;;;;;;;0.10;0.10;;;;;;;19.73;39.08;101545.88;5055652;28;20415;-85
2023/09/09 01:12:58;;;;;;;0.10;0.10;;;;;;;19.66;39.00;101540.50;5068884;28;20373;-87
2023/09/09 01:15:24;;;;;;;0.10;0.10;;;;;;;19.71;39.00;101537.19;5067381;28;20435;-84
2023/09/09 01:17:52;;;;;;;0.10;0.10;;;;;;;19.71;38.90;101547.97;5035605;28;20824;-85
2023/09/09 01:20:24;;;;;;;0.10;0.10;;;;;;;19.63;38.88;101541.75;5030905;28;20382;-85
2023/09/09 01:22:54;;;;;;;0.10;0.10;;;;;;;19.54;39.21;101531.44;5017169;28;20398;-87
2023/09/09 01:25:20;;;;;;;0.10;0.10;;;;;;;19.55;39.46;101544.66;5040490;28;20387;-84
2023/09/09 01:27:45;;;;;;;0.20;0.20;;;;;;;19.60;39.49;101539.47;5030086;28;20514;-86
2023/09/09 01:30:11;;;;;;;0.30;0.30;;;;;;;19.61;39.40;101538.47;5014004;28;20576;-86
2023/09/09 01:32:40;;;;;;;0.10;0.10;;;;;;;19.61;39.49;101532.25;5028838;28;20422;-86
2023/09/09 01:35:06;;;;;;;0.20;0.20;;;;;;;19.60;39.42;101535.97;5030233;28;20417;-88
2023/09/09 01:37:34;;;;;;;0.10;0.10;;;;;;;19.54;39.58;101534.13;5030323;28;20844;-87
2023/09/09 01:40:12;;;;;;;0.10;0.10;;;;;;;19.34;39.96;101540.38;5030295;28;20444;-85
2023/09/09 01:42:38;;;;;;;0.10;0.10;;;;;;;19.26;40.17;101543.25;4998674;28;20415;-85
2023/09/09 01:45:07;;;;;;;0.10;0.10;;;;;;;19.04;40.54;101545.31;5030208;28;20386;-85
2023/09/09 01:47:33;;;;;;;0.38;0.38;;;;;;;18.83;40.96;101538.25;4997684;28;20960;-83
2023/09/09 01:50:02;;;;;;;0.40;0.40;;;;;;;18.76;41.30;101550.81;5013788;28;20437;-85
2023/09/09 01:52:29;;;;;;;0.20;0.20;;;;;;;18.82;41.21;101552.75;5052606;28;20381;-86
2023/09/09 01:54:55;;;;;;;0.40;0.40;;;;;;;18.71;42.22;101552.28;5052152;28;20454;-86
2023/09/09 01:57:26;;;;;;;0.10;0.10;;;;;;;18.52;42.55;101553.03;5052075;28;20392;-86
2023/09/09 01:59:56;;;;;;;0.10;0.10;;;;;;;18.46;43.32;101549.31;5034380;28;20384;-86
2023/09/09 02:02:22;;;;;;;0.20;0.20;;;;;;;18.46;43.31;101548.50;5051967;28;20400;-84
2023/09/09 02:04:48;;;;;;;1.20;0.60;;;;;;;18.48;43.71;101554.47;5034217;28;20401;-84
2023/09/09 02:07:16;;;;;;;0.10;0.10;;;;;;;18.46;44.27;101560.06;5033896;28;20890;-84
2023/09/09 02:09:42;;;;;;;0.10;0.10;;;;;;;18.41;44.80;101559.81;5052092;28;20460;-85
2023/09/09 02:12:10;;;;;;;0.00;0.00;;;;;;;18.30;45.07;101569.28;5034300;28;20481;-84
2023/09/09 02:14:36;;;;;;;0.10;0.10;;;;;;;18.29;45.71;101564.97;5033662;28;20420;-84
2023/09/09 02:17:03;;;;;;;0.10;0.10;;;;;;;18.27;45.90;101564.31;5034135;28;20925;-84
2023/09/09 02:19:32;;;;;;;0.40;0.40;;;;;;;18.26;46.14;101577.94;5051571;28;20427;-85
2023/09/09 02:21:59;;;;;;;0.10;0.10;;;;;;;18.36;45.75;101574.88;5051630;28;20924;-85
2023/09/09 02:24:25;;;;;;;0.70;0.30;;;;;;;18.36;45.85;101562.28;5048933;28;20408;-86
2023/09/09 02:26:51;;;;;;;0.15;0.15;;;;;;;18.32;46.01;101563.72;4988754;28;20477;-87
2023/09/09 02:29:17;;;;;;;0.10;0.10;;;;;;;18.33;45.94;101565.38;4989121;28;20902;-87
2023/09/09 02:31:42;;;;;;;0.10;0.10;;;;;;;18.30;46.47;101566.59;4988420;28;20402;-87
2023/09/09 02:34:10;;;;;;;0.20;0.20;;;;;;;18.24;46.88;101561.19;4978103;28;20767;-87
2023/09/09 02:36:36;;;;;;;0.10;0.10;;;;;;;18.20;47.02;101570.69;4984256;28;20415;-86
2023/09/09 02:39:01;;;;;;;0.20;0.20;;;;;;;18.20;47.22;101568.81;4977025;28;20493;-86
2023/09/09 02:41:27;;;;;;;0.10;0.10;;;;;;;18.07;47.68;101558.84;4964983;28;20435;-87
2023/09/09 02:43:52;;;;;;;0.10;0.10;;;;;;;18.19;47.40;101569.03;4982704;28;20442;-87
2023/09/09 02:46:21;;;;;;;0.30;0.30;;;;;;;18.23;47.28;101564.91;4988064;28;20746;-86
2023/09/09 02:48:53;;;;;;;0.22;0.22;;;;;;;18.23;47.14;101568.41;4967996;28;20394;-86
2023/09/09 02:51:18;;;;;;;0.20;0.20;;;;;;;18.20;47.48;101560.75;4959102;28;20483;-85
2023/09/09 02:53:44;;;;;;;0.40;0.40;;;;;;;18.11;48.17;101556.59;4959285;28;20391;-86
2023/09/09 02:56:10;;;;;;;0.30;0.30;;;;;;;18.11;48.18;101553.91;4958748;28;20498;-85
2023/09/09 02:58:35;;;;;;;0.85;0.50;;;;;;;17.95;48.96;101563.97;5017268;28;20897;-86
2023/09/09 03:01:05;;;;;;;0.60;0.50;;;;;;;17.81;49.28;101556.84;5014776;28;20379;-86
2023/09/09 03:03:31;;;;;;;0.40;0.30;;;;;;;17.76;49.71;101556.59;5011100;28;20384;-84
2023/09/09 03:06:02;;;;;;;0.43;0.35;;;;;;;17.65;50.00;101562.50;5010128;28;20454;-84
2023/09/09 03:08:29;;;;;;;0.65;0.40;;;;;;;17.74;49.76;101555.97;5021938;28;20814;-84
2023/09/09 03:10:54;;;;;;;2.60;0.60;;;;;;;17.76;49.65;101561.97;5015250;28;20437;-87
2023/09/09 03:13:20;;;;;;;1.47;0.60;;;;;;;17.69;49.66;101558.41;5027727;28;20390;-82
2023/09/09 03:15:46;;;;;;;1.15;0.85;;;;;;;17.61;50.00;101559.41;5028251;28;20411;-83
2023/09/09 03:18:11;;;;;;;0.30;0.30;;;;;;;17.60;49.87;101560.41;5041432;28;20387;-83
2023/09/09 03:20:37;;;;;;;0.22;0.22;;;;;;;17.66;49.71;101556.94;5033538;28;21169;-85
2023/09/09 03:23:02;;;;;;;0.47;0.37;;;;;;;17.80;49.04;101557.03;5028233;28;20418;-84
2023/09/09 03:25:28;;;;;;;0.63;0.40;;;;;;;17.89;48.50;101556.69;5027744;28;20386;-83
2023/09/09 03:27:53;;;;;;;0.67;0.43;;;;;;;17.92;48.22;101560.84;5032148;28;20558;-83
2023/09/09 03:30:20;;;;;;;0.80;0.40;;;;;;;17.82;48.36;101560.34;5050806;28;20404;-86
2023/09/09 03:32:48;;;;;;;0.90;0.40;;;;;;;17.76;48.37;101554.72;5050313;28;20403;-85
2023/09/09 03:35:14;;;;;;;0.70;0.37;;;;;;;17.74;48.35;101555.97;5050416;28;20510;-84
2023/09/09 03:37:39;;;;;;;0.93;0.52;;;;;;;17.66;48.60;101558.78;5031066;28;20455;-86
2023/09/09 03:40:06;;;;;;;0.83;0.40;;;;;;;17.71;48.39;101559.03;5040387;28;20435;-86
2023/09/09 03:42:33;;;;;;;0.57;0.40;;;;;;;17.73;48.42;101568.53;5020907;28;20530;-86
2023/09/09 03:44:58;;;;;;;0.88;0.50;;;;;;;17.73;48.03;101565.84;5040718;28;20378;-86
2023/09/09 03:47:25;;;;;;;0.77;0.50;;;;;;;17.82;47.91;101560.34;5036244;28;20406;-86
2023/09/09 03:49:53;;;;;;;0.50;0.40;;;;;;;17.82;47.77;101566.53;5045138;28;20381;-85
2023/09/09 03:52:19;;;;;;;0.85;0.70;;;;;;;17.77;47.88;101563.59;5015622;28;20394;-85
2023/09/09 03:54:46;;;;;;;0.30;0.30;;;;;;;17.73;47.99;101568.53;5024605;28;20414;-83
2023/09/09 03:57:12;;;;;;;0.20;0.20;;;;;;;17.75;47.74;101574.56;5014547;28;20417;-83
2023/09/09 03:59:37;;;;;;;0.30;0.30;;;;;;;17.78;47.66;101568.78;5029406;28;20410;-84
2023/09/09 04:02:03;;;;;;;0.13;0.13;;;;;;;17.82;47.33;101568.38;5040395;28;20497;-84
2023/09/09 04:04:29;;;;;;;0.20;0.20;;;;;;;17.94;47.14;101578.38;5038211;28;20748;-84
2023/09/09 04:06:54;;;;;;;0.25;0.25;;;;;;;17.88;47.35;101572.97;5047887;28;20452;-83
2023/09/09 04:09:22;;;;;;;0.30;0.30;;;;;;;17.94;46.97;101585.63;5044652;28;20393;-83
2023/09/09 04:11:47;;;;;;;0.20;0.20;;;;;;;17.97;47.09;101574.50;5041303;28;20892;-83
2023/09/09 04:14:14;;;;;;;0.40;0.40;;;;;;;18.02;46.67;101576.56;5030842;28;20461;-83
2023/09/09 04:16:40;;;;;;;2.20;0.40;;;;;;;18.03;46.77;101581.75;5046132;28;20491;-83
2023/09/09 04:19:08;;;;;;;0.38;0.38;;;;;;;18.09;46.53;101585.50;5029399;28;20408;-83
2023/09/09 04:21:36;;;;;;;0.20;0.20;;;;;;;18.14;46.35;101585.72;5010854;28;20382;-82
2023/09/09 04:24:02;;;;;;;0.10;0.10;;;;;;;18.09;46.35;101577.44;5027347;28;20397;-82
2023/09/09 04:26:28;;;;;;;0.30;0.30;;;;;;;18.10;46.44;101582.59;5048333;28;20380;-84
2023/09/09 04:28:54;;;;;;;0.30;0.30;;;;;;;18.02;46.60;101577.38;5048736;28;20440;-83
2023/09/09 04:31:21;;;;;;;0.30;0.30;;;;;;;18.15;46.27;101592.75;5049756;28;20376;-84
2023/09/09 04:33:46;;;;;;;0.20;0.20;;;;;;;18.26;46.02;101583.31;5048291;28;20855;-85
2023/09/09 04:36:13;;;;;;;0.20;0.20;;;;;;;18.30;45.82;101579.19;5047346;28;20566;-85
2023/09/09 04:38:39;;;;;;;0.30;0.30;;;;;;;18.26;45.92;101580.63;5047768;28;20436;-85
2023/09/09 04:41:04;;;;;;;0.43;0.40;;;;;;;18.32;45.71;101577.97;5047521;28;20482;-83
2023/09/09 04:43:30;;;;;;;1.00;0.52;;;;;;;18.39;45.66;101575.31;5047449;28;20502;-83
2023/09/09 04:45:55;;;;;;;0.70;0.47;;;;;;;18.43;45.57;101578.41;5048986;28;20391;-83
2023/09/09 04:48:21;;;;;;;1.20;0.57;;;;;;;18.49;45.41;101582.97;5049692;28;21004;-84
2023/09/09 04:50:46;;;;;;;1.30;0.60;;;;;;;18.48;45.42;101582.16;5036124;28;20984;-85
2023/09/09 04:53:12;;;;;;;0.32;0.32;;;;;;;18.62;45.39;101582.19;5050763;28;20416;-84
2023/09/09 04:55:37;;;;;;;0.20;0.20;;;;;;;18.71;45.29;101581.00;5053040;28;20511;-87
2023/09/09 04:58:11;;;;;;;0.20;0.20;;;;;;;18.84;45.13;101588.28;5057112;28;20388;-86
2023/09/09 05:00:38;;;;;;;0.20;0.20;;;;;;;18.92;44.93;101593.44;5069423;28;20750;-88
2023/09/09 05:03:06;;;;;;;0.28;0.28;;;;;;;18.92;44.91;101585.38;5056365;28;20391;-86
2023/09/09 05:05:33;;;;;;;0.10;0.10;;;;;;;19.04;44.72;101594.50;5070104;28;20389;-85
2023/09/09 05:08:01;;;;;;;0.10;0.10;;;;;;;18.94;45.03;101594.06;5051445;28;20389;-82
2023/09/09 05:10:27;;;;;;;0.15;0.15;;;;;;;19.04;44.92;101597.19;5043849;28;20393;-83
2023/09/09 05:12:53;;;;;;;0.10;0.10;;;;;;;19.13;44.61;101594.31;5050723;28;20390;-83
2023/09/09 05:15:20;;;;;;;0.10;0.10;;;;;;;19.21;44.47;101594.09;5071802;28;20490;-85
2023/09/09 05:17:46;;;;;;;0.57;0.57;;;;;;;19.26;44.33;101600.50;5066829;28;20563;-83
2023/09/09 05:20:14;;;;;;;0.40;0.40;;;;;;;19.33;44.25;101607.78;5051482;28;20372;-85
2023/09/09 05:22:40;;;;;;;0.17;0.17;;;;;;;19.38;44.17;101603.44;5054507;28;20929;-83
2023/09/09 05:25:05;;;;;;;0.15;0.15;;;;;;;19.44;44.18;101605.28;5022642;28;20444;-83
2023/09/09 05:27:31;;;;;;;0.10;0.10;;;;;;;19.61;43.71;101602.19;5028467;28;20887;-83
2023/09/09 05:29:57;;;;;;;0.10;0.10;;;;;;;19.73;43.60;101592.47;5036930;28;20377;-84
2023/09/09 05:32:23;;;;;;;0.10;0.10;;;;;;;19.74;43.61;101596.81;5053505;28;20756;-80
2023/09/09 05:34:51;;;;;;;0.30;0.20;;;;;;;19.86;43.55;101599.69;5052884;28;20910;-80
2023/09/09 05:37:17;;;;;;;0.10;0.10;;;;;;;19.99;43.23;101593.47;5035565;28;20389;-79
2023/09/09 05:39:43;;;;;;;0.50;0.40;;;;;;;20.09;43.16;101601.09;5030268;28;20386;-79
2023/09/09 05:42:09;;;;;;;0.30;0.30;;;;;;;20.21;43.05;101605.59;5031077;28;20400;-86
2023/09/09 05:44:37;;;;;;;3.00;0.57;;;;;;;20.30;42.90;101613.44;5052304;28;20928;-84
2023/09/09 05:47:20;;;;;;;0.93;0.93;;;;;;;20.38;42.84;101602.44;5047838;28;20407;-84
2023/09/09 05:49:46;;;;;;;0.50;0.50;;;;;;;20.50;42.80;101607.97;5053324;28;20762;-83
2023/09/09 05:52:13;;;;;;;0.50;0.50;;;;;;;20.58;42.59;101613.97;5053870;28;20389;-84
2023/09/09 05:54:43;;;;;;;0.10;0.10;;;;;;;20.57;42.45;101611.47;5053843;28;20519;-85
2023/09/09 05:57:10;;;;;;;0.10;0.10;;;;;;;20.59;42.02;101607.50;5036640;28;20393;-86
2023/09/09 05:59:38;;;;;;;0.20;0.20;;;;;;;20.73;42.03;101611.00;5051270;28;20377;-83
2023/09/09 06:02:05;;;;;;;0.43;0.43;;;;;;;20.81;41.73;101613.47;5053186;28;20373;-82
2023/09/09 06:04:31;;;;;;;0.20;0.20;;;;;;;20.89;41.89;101606.97;5053050;28;20380;-82
2023/09/09 06:07:02;;;;;;;0.20;0.20;;;;;;;21.04;41.56;101613.94;5052754;28;20893;-82
2023/09/09 06:09:28;;;;;;;0.10;0.10;;;;;;;21.15;41.42;101610.53;5050780;28;20377;-83
2023/09/09 06:11:55;;;;;;;0.10;0.10;;;;;;;21.26;41.22;101611.69;5034112;28;20410;-82
2023/09/09 06:14:21;;;;;;;0.20;0.20;;;;;;;21.27;41.19;101608.78;5051432;28;20868;-84
2023/09/09 06:16:47;;;;;;;0.20;0.20;;;;;;;21.49;40.89;101616.53;5052842;28;20402;-84
2023/09/09 06:19:12;;;;;;;0.50;0.50;;;;;;;21.52;40.88;101618.78;5050364;28;20393;-81
2023/09/09 06:21:38;;;;;;;0.20;0.20;;;;;;;21.58;40.91;101613.31;5017497;28;20411;-82
2023/09/09 06:24:06;;;;;;;0.13;0.13;;;;;;;21.68;41.07;101615.53;5051731;28;20389;-81
2023/09/09 06:26:33;;;;;;;0.20;0.20;;;;;;;21.75;40.70;101619.00;5050380;28;20403;-81
2023/09/09 06:29:01;;;;;;;0.10;0.10;;;;;;;21.80;40.73;101612.91;5060368;28;20414;-80
2023/09/09 06:31:28;;;;;;;0.10;0.10;;;;;;;21.88;40.63;101625.31;5041181;28;20423;-82
2023/09/09 06:33:53;;;;;;;0.17;0.17;;;;;;;21.97;40.44;101618.56;5057277;28;20419;-82
2023/09/09 06:36:22;;;;;;;0.10;0.10;;;;;;;22.05;40.19;101612.03;5060898;28;20434;-80
2023/09/09 06:38:49;;;;;;;0.20;0.20;;;;;;;22.14;40.18;101603.41;5061992;28;20497;-81
2023/09/09 06:41:15;;;;;;;0.10;0.10;;;;;;;22.29;39.42;101621.97;5070388;28;20375;-82
2023/09/09 06:43:42;;;;;;;0.10;0.10;;;;;;;22.33;39.32;101615.06;5069584;28;20521;-81
2023/09/09 06:46:08;;;;;;;0.10;0.10;;;;;;;22.36;39.15;101616.47;5037559;28;20493;-83
2023/09/09 06:48:34;;;;;;;0.10;0.10;;;;;;;22.39;39.24;101621.44;5070340;28;20517;-81
2023/09/09 06:51:00;;;;;;;0.10;0.10;;;;;;;22.46;39.13;101622.16;5069292;28;20382;-81
2023/09/09 06:53:26;;;;;;;0.20;0.20;;;;;;;22.51;39.19;101622.31;5069134;28;20388;-81
2023/09/09 06:55:53;;;;;;;0.20;0.20;;;;;;;22.60;38.98;101624.69;5065803;28;20440;-86
2023/09/09 06:58:20;;;;;;;0.35;0.35;;;;;;;22.65;38.59;101619.44;5065909;28;20391;-82
2023/09/09 07:00:50;;;;;;;0.20;0.20;;;;;;;22.74;38.47;101623.47;5029760;28;20394;-82
2023/09/09 07:03:18;;;;;;;0.20;0.20;;;;;;;22.84;38.49;101618.34;5034737;28;20397;-81
2023/09/09 07:05:43;;;;;;;0.47;0.25;;;;;;;22.95;37.83;101616.72;5038523;28;20383;-81
2023/09/09 07:08:09;;;;;;;0.10;0.10;;;;;;;23.12;37.28;101616.09;5037413;28;20473;-81
2023/09/09 07:10:35;;;;;;;0.17;0.17;;;;;;;23.20;36.68;101616.59;5041571;28;20381;-82
2023/09/09 07:13:00;;;;;;;0.10;0.10;;;;;;;23.23;36.35;101607.19;5040161;28;20382;-80
2023/09/09 07:15:25;;;;;;;0.20;0.20;;;;;;;23.34;35.89;101616.38;5052107;28;20910;-90
2023/09/09 07:17:51;;;;;;;0.20;0.20;;;;;;;23.28;35.49;101615.41;5035497;28;20385;-83
2023/09/09 07:20:17;;;;;;;0.70;0.50;;;;;;;23.36;35.66;101604.25;5035354;28;20381;-81
2023/09/09 07:22:42;;;;;;;0.40;0.40;;;;;;;23.47;35.38;101605.31;5051298;28;20472;-84
2023/09/09 07:25:08;;;;;;;0.20;0.20;;;;;;;23.56;35.04;101611.22;5036690;28;20391;-83
2023/09/09 07:27:35;;;;;;;0.10;0.10;;;;;;;23.67;34.83;101607.69;5059951;28;20416;-87
2023/09/09 07:30:01;;;;;;;0.28;0.28;;;;;;;23.73;34.93;101593.19;5059160;28;20462;-86
2023/09/09 07:32:27;;;;;;;0.20;0.20;;;;;;;23.66;35.30;101601.44;5053968;28;20756;-80
2023/09/09 07:34:52;;;;;;;0.40;0.40;;;;;;;23.79;35.03;101603.09;5053024;28;20895;-82
2023/09/09 07:37:19;;;;;;;0.50;0.30;;;;;;;23.94;34.68;101599.09;5041065;28;20757;-81
2023/09/09 07:39:46;;;;;;;0.30;0.30;;;;;;;24.02;33.89;101599.56;5035024;28;20393;-83
2023/09/09 07:42:13;;;;;;;0.20;0.20;;;;;;;24.17;33.27;101604.47;5031769;28;20378;-83
2023/09/09 07:44:39;;;;;;;0.20;0.20;;;;;;;24.19;32.10;101598.81;5031912;28;20404;-82
2023/09/09 07:47:07;;;;;;;0.10;0.10;;;;;;;24.26;32.21;101604.13;5031105;28;20405;-82
2023/09/09 07:49:33;;;;;;;0.20;0.20;;;;;;;24.46;32.48;101606.41;5042215;28;20376;-82
2023/09/09 07:51:59;;;;;;;0.13;0.13;;;;;;;24.49;32.53;101601.31;5051053;28;20427;-84
2023/09/09 07:54:25;;;;;;;0.20;0.20;;;;;;;24.53;32.06;101604.41;5033052;28;20492;-82
2023/09/09 07:56:51;;;;;;;0.50;0.50;;;;;;;24.45;31.58;101602.03;5032731;28;20497;-79
2023/09/09 07:59:16;;;;;;;0.40;0.40;;;;;;;24.49;31.85;101603.19;5050951;28;20379;-86
2023/09/09 08:01:44;;;;;;;0.10;0.10;;;;;;;24.55;32.07;101607.69;5017432;28;20962;-82
2023/09/09 08:04:10;;;;;;;0.22;0.22;;;;;;;24.59;31.32;101598.00;5050449;28;20385;-90
2023/09/09 08:06:36;;;;;;;0.10;0.10;;;;;;;24.66;31.25;101598.69;5049541;28;20423;-79
2023/09/09 08:09:03;;;;;;;0.10;0.10;;;;;;;24.60;30.03;101605.06;5028131;28;20398;-83
2023/09/09 08:11:29;;;;;;;0.20;0.20;;;;;;;24.65;30.42;101596.19;5027240;28;21207;-77
2023/09/09 08:13:54;;;;;;;0.20;0.20;;;;;;;24.77;29.99;101600.50;5030976;28;20430;-83
2023/09/09 08:16:20;;;;;;;0.70;0.60;;;;;;;24.93;30.10;101590.75;5028314;28;20402;-83
2023/09/09 08:18:46;;;;;;;0.13;0.13;;;;;;;25.17;30.36;101591.44;5028104;28;20864;-83
2023/09/09 08:21:13;;;;;;;0.10;0.10;;;;;;;25.15;29.74;101585.41;5012328;28;20397;-83
2023/09/09 08:23:39;;;;;;;0.30;0.30;;;;;;;25.30;30.16;101589.47;5028485;28;20386;-82
2023/09/09 08:26:05;;;;;;;0.30;0.30;;;;;;;25.34;29.45;101588.75;5011516;28;20398;-82
2023/09/09 08:28:31;;;;;;;0.20;0.20;;;;;;;25.45;29.18;101588.91;5028072;28;20468;-82
2023/09/09 08:31:00;;;;;;;0.20;0.20;;;;;;;25.49;28.90;101590.06;5028348;28;20510;-80
2023/09/09 08:33:26;;;;;;;0.10;0.10;;;;;;;25.54;29.26;101588.22;5028321;28;20473;-85
2023/09/09 08:35:56;;;;;;;0.20;0.20;;;;;;;25.64;28.94;101593.00;5011822;28;20425;-85
2023/09/09 08:38:22;;;;;;;0.10;0.10;;;;;;;25.65;28.75;101589.19;5028395;28;20379;-81
2023/09/09 08:41:11;;;;;;;0.20;0.20;;;;;;;25.78;28.89;101569.00;5046868;28;20393;-82
2023/09/09 08:43:50;;;;;;;0.10;0.10;;;;;;;25.79;28.73;101573.38;5026932;28;20396;-84
2023/09/09 08:46:17;;;;;;;0.40;0.40;;;;;;;25.86;29.08;101570.47;5041895;28;20448;-83
2023/09/09 08:48:43;;;;;;;0.30;0.30;;;;;;;25.92;29.41;101564.84;5044173;28;20874;-83
2023/09/09 08:51:13;;;;;;;0.35;0.35;;;;;;;25.97;29.12;101566.84;5045797;28;20482;-85
2023/09/09 08:53:41;;;;;;;0.40;0.40;;;;;;;25.98;29.50;101563.03;5036283;28;20480;-84
2023/09/09 08:56:07;;;;;;;0.10;0.10;;;;;;;26.00;29.44;101565.50;5048702;28;20401;-82
2023/09/09 08:58:32;;;;;;;0.30;0.30;;;;;;;26.08;28.49;101565.06;5050598;28;20373;-81
2023/09/09 09:00:59;;;;;;;0.10;0.10;;;;;;;26.18;28.73;101558.94;5032408;28;20461;-84
2023/09/09 09:03:26;;;;;;;0.10;0.10;;;;;;;26.08;27.98;101573.22;5030797;28;20869;-82
2023/09/09 09:05:56;;;;;;;0.10;0.10;;;;;;;26.03;28.23;101562.28;4996653;28;20394;-80
2023/09/09 09:08:22;;;;;;;0.20;0.20;;;;;;;26.16;28.47;101558.38;4995314;28;20478;-81
2023/09/09 09:10:48;;;;;;;0.10;0.10;;;;;;;26.22;28.09;101555.47;5012184;28;20394;-80
2023/09/09 09:13:15;;;;;;;0.10;0.10;;;;;;;26.37;27.82;101562.94;5028876;28;20389;-78
2023/09/09 09:15:43;;;;;;;0.20;0.20;;;;;;;26.45;28.23;101562.50;5047529;28;20506;-77
2023/09/09 09:18:09;;;;;;;0.28;0.28;;;;;;;26.52;28.14;101559.56;5039507;28;20932;-81
2023/09/09 09:20:36;;;;;;;0.30;0.30;;;;;;;26.56;27.87;101555.28;5044574;28;20404;-80
2023/09/09 09:23:05;;;;;;;0.20;0.20;;;;;;;26.63;27.70;101552.38;5047674;28;20788;-79
2023/09/09 09:25:37;;;;;;;0.20;0.20;;;;;;;26.67;27.71;101548.06;5044579;28;20955;-79
2023/09/09 09:28:03;;;;;;;0.20;0.20;;;;;;;26.84;27.76;101546.03;5046397;28;20507;-81
2023/09/09 09:30:31;;;;;;;0.28;0.28;;;;;;;26.89;27.93;101546.06;5045387;28;20416;-78
2023/09/09 09:32:57;;;;;;;0.10;0.10;;;;;;;27.01;28.21;101528.75;5046601;28;20423;-85
2023/09/09 09:35:23;;;;;;;0.13;0.13;;;;;;;26.96;28.30;101523.28;5031733;28;20423;-79
2023/09/09 09:38:00;;;;;;;0.32;0.32;;;;;;;27.09;27.53;101525.56;5051077;28;20389;-79
2023/09/09 09:40:27;;;;;;;0.20;0.20;;;;;;;27.23;27.73;101526.75;5028154;28;20425;-80
2023/09/09 09:42:53;;;;;;;0.20;0.20;;;;;;;27.13;28.53;101523.94;5030214;28;20437;-83
2023/09/09 09:45:37;;;;;;;0.70;0.60;;;;;;;27.14;29.14;101517.44;5032946;28;20418;-79
2023/09/09 09:48:03;;;;;;;0.40;0.40;;;;;;;27.22;28.71;101511.47;5030809;28;20789;-80
2023/09/09 09:50:30;;;;;;;0.20;0.20;;;;;;;27.34;28.94;101508.59;5030270;28;20897;-81
2023/09/09 09:52:59;;;;;;;0.20;0.20;;;;;;;27.49;28.18;101496.97;5030477;28;20469;-80
2023/09/09 09:55:26;;;;;;;0.10;0.10;;;;;;;27.54;27.78;101498.91;5013596;28;20975;-80
2023/09/09 09:58:00;;;;;;;0.10;0.10;;;;;;;27.57;27.35;101501.09;5027646;28;20493;-81
2023/09/09 10:00:27;;;;;;;0.40;0.40;;;;;;;27.64;27.41;101504.38;4997783;28;20394;-80
2023/09/09 10:03:01;;;;;;;0.22;0.22;;;;;;;27.74;26.56;101506.34;5014082;28;20390;-79
2023/09/09 10:05:29;;;;;;;0.20;0.20;;;;;;;27.83;26.83;101499.28;5013702;28;20430;-82
2023/09/09 10:08:16;;;;;;;0.30;0.30;;;;;;;27.81;26.86;101488.66;5029551;28;20402;-79
2023/09/09 10:11:19;;;;;;;0.13;0.13;;;;;;;27.77;25.48;101497.66;5035285;28;20393;-81
2023/09/09 10:14:04;;;;;;;0.30;0.30;;;;;;;27.80;25.14;101481.59;4969531;28;20427;-79
2023/09/09 10:16:32;;;;;;;0.10;0.10;;;;;;;27.98;24.97;101487.63;5027952;28;20411;-80
2023/09/09 10:19:01;;;;;;;0.10;0.10;;;;;;;28.07;25.06;101488.75;5050701;28;20956;-81
2023/09/09 10:21:28;;;;;;;0.10;0.10;;;;;;;28.08;24.36;101486.88;5052406;28;20381;-80
2023/09/09 10:23:56;;;;;;;0.30;0.30;;;;;;;28.05;24.49;101484.66;5052149;28;20428;-80
2023/09/09 10:26:23;;;;;;;0.17;0.17;;;;;;;28.07;24.57;101482.50;5033733;28;20496;-79
2023/09/09 10:28:53;;;;;;;0.50;0.50;;;;;;;28.12;23.63;101482.50;5036336;28;20423;-79
2023/09/09 10:31:19;;;;;;;0.20;0.20;;;;;;;28.09;22.55;101474.84;5047708;28;20400;-80
2023/09/09 10:33:50;;;;;;;0.10;0.10;;;;;;;28.10;22.92;101474.59;5016470;28;20803;-78
2023/09/09 10:36:17;;;;;;;0.10;0.10;;;;;;;28.12;23.67;101466.97;5020442;28;20445;-79
2023/09/09 10:38:42;;;;;;;0.10;0.10;;;;;;;28.20;24.12;101474.63;5030259;28;20413;-78
2023/09/09 10:41:10;;;;;;;0.20;0.20;;;;;;;28.28;24.33;101469.72;5029959;28;20387;-78
2023/09/09 10:43:36;;;;;;;0.60;0.60;;;;;;;28.38;23.98;101467.03;5038069;28;20412;-80
2023/09/09 10:46:02;;;;;;;0.20;0.20;;;;;;;28.41;23.74;101467.28;5017713;28;20749;-82
2023/09/09 10:48:28;;;;;;;0.20;0.20;;;;;;;28.48;23.63;101466.19;5027525;28;20461;-78
2023/09/09 10:50:55;;;;;;;0.30;0.30;;;;;;;28.52;22.54;101451.75;5022650;28;20483;-77
2023/09/09 10:53:29;;;;;;;0.30;0.30;;;;;;;28.49;23.09;101449.56;5019116;28;20394;-80
2023/09/09 10:56:01;;;;;;;0.20;0.20;;;;;;;28.54;23.05;101448.75;5034907;28;20411;-78
2023/09/09 10:58:35;;;;;;;0.20;0.20;;;;;;;28.56;22.62;101444.69;5045416;28;20826;-79
2023/09/09 11:01:01;;;;;;;0.20;0.20;;;;;;;28.62;23.29;101455.59;5036782;28;20390;-77
2023/09/09 11:03:47;;;;;;;1.05;0.25;;;;;;;28.65;23.39;101442.22;5034904;28;20896;-77
2023/09/09 11:06:24;;;;;;;0.40;0.40;;;;;;;28.78;22.63;101436.19;5031109;28;20399;-78
2023/09/09 11:08:54;;;;;;;0.10;0.10;;;;;;;28.81;22.62;101428.53;5043898;28;20386;-79
2023/09/09 11:11:27;;;;;;;0.10;0.10;;;;;;;28.89;22.88;101428.00;5024604;28;20750;-78
2023/09/09 11:14:07;;;;;;;0.30;0.30;;;;;;;28.84;22.71;101423.34;5040558;28;20754;-79
2023/09/09 11:16:35;;;;;;;0.10;0.10;;;;;;;28.77;23.50;101418.22;5041714;28;20432;-79
2023/09/09 11:19:08;;;;;;;0.20;0.20;;;;;;;28.84;23.80;101415.16;5039037;28;20395;-79
2023/09/09 11:21:37;;;;;;;0.23;0.23;;;;;;;28.91;24.10;101417.63;5038677;28;20388;-78
2023/09/09 11:24:03;;;;;;;0.20;0.20;;;;;;;28.96;23.88;101415.69;5045322;28;20389;-79
2023/09/09 11:26:30;;;;;;;0.20;0.20;;;;;;;29.02;23.82;101405.56;5030403;28;20390;-78